createdAt,value
2022-07-25T00:00:29.472Z,6.63
2022-07-25T00:03:02.767Z,6.20
2022-07-25T00:05:37.930Z,5.93
2022-07-25T00:08:09.876Z,6.63
2022-07-25T00:10:41.633Z,7.17
2022-07-25T00:13:13.483Z,6.57
2022-07-25T00:15:45.329Z,6.53
2022-07-25T00:18:17.136Z,6.27
2022-07-25T00:20:48.876Z,6.87
2022-07-25T00:23:20.784Z,6.70
2022-07-25T00:25:52.542Z,6.10
2022-07-25T00:28:24.260Z,6.47
2022-07-25T00:30:56.202Z,6.73
2022-07-25T00:33:27.969Z,6.33
2022-07-25T00:35:59.885Z,6.90
2022-07-25T00:38:31.619Z,7.00
2022-07-25T00:41:04.385Z,6.43
2022-07-25T00:43:36.319Z,6.30
2022-07-25T00:46:08.721Z,6.23
2022-07-25T00:48:41.045Z,6.43
2022-07-25T00:51:12.890Z,6.23
2022-07-25T00:53:45.390Z,6.63
2022-07-25T00:56:17.303Z,7.03
2022-07-25T00:58:49.027Z,6.87
2022-07-25T01:01:20.987Z,6.33
2022-07-25T01:03:52.857Z,6.40
2022-07-25T01:06:25.415Z,7.30
2022-07-25T01:08:58.169Z,6.43
2022-07-25T01:11:29.921Z,6.60
2022-07-25T01:14:01.924Z,6.30
2022-07-25T01:16:33.899Z,6.07
2022-07-25T01:19:05.638Z,6.90
2022-07-25T01:21:39.353Z,6.50
2022-07-25T01:24:11.585Z,6.73
2022-07-25T01:26:43.402Z,6.77
2022-07-25T01:29:15.158Z,7.03
2022-07-25T01:31:47.036Z,7.20
2022-07-25T01:34:18.799Z,6.60
2022-07-25T01:36:50.609Z,6.20
2022-07-25T01:39:22.384Z,7.30
2022-07-25T01:41:54.122Z,6.97
2022-07-25T01:44:25.867Z,7.47
2022-07-25T01:46:57.629Z,7.37
2022-07-25T01:49:30.094Z,7.10
2022-07-25T01:52:01.976Z,8.77
2022-07-25T01:54:33.725Z,7.20
2022-07-25T01:57:06.901Z,7.40
2022-07-25T01:59:40.191Z,6.73
2022-07-25T02:02:11.981Z,7.80
2022-07-25T02:04:43.842Z,6.80
2022-07-25T02:07:15.667Z,7.03
2022-07-25T02:09:47.386Z,7.37
2022-07-25T02:12:19.339Z,6.87
2022-07-25T02:14:51.372Z,7.30
2022-07-25T02:17:23.376Z,7.57
2022-07-25T02:19:55.095Z,7.37
2022-07-25T02:22:26.842Z,7.07
2022-07-25T02:24:58.587Z,7.40
2022-07-25T02:27:30.373Z,7.23
2022-07-25T02:30:02.101Z,7.47
2022-07-25T02:32:33.983Z,8.80
2022-07-25T02:35:09.918Z,7.63
2022-07-25T02:37:45.325Z,7.37
2022-07-25T02:40:17.084Z,7.30
2022-07-25T02:42:48.850Z,8.17
2022-07-25T02:45:20.665Z,7.50
2022-07-25T02:47:52.701Z,7.63
2022-07-25T02:50:25.110Z,8.37
2022-07-25T02:52:56.900Z,7.70
2022-07-25T02:55:28.649Z,7.97
2022-07-25T02:58:00.386Z,8.37
2022-07-25T03:00:32.163Z,7.80
2022-07-25T03:03:04.032Z,8.40
2022-07-25T03:05:36.065Z,8.90
2022-07-25T03:08:07.805Z,7.80
2022-07-25T03:10:39.550Z,8.03
2022-07-25T03:13:11.292Z,8.57
2022-07-25T03:15:43.515Z,8.63
2022-07-25T03:18:15.281Z,8.80
2022-07-25T03:20:47.036Z,8.50
2022-07-25T03:23:18.788Z,8.30
2022-07-25T03:25:50.509Z,8.10
2022-07-25T03:28:22.723Z,8.10
2022-07-25T03:30:55.039Z,8.30
2022-07-25T03:33:26.785Z,8.80
2022-07-25T03:35:58.520Z,8.87
2022-07-25T03:38:30.312Z,8.50
2022-07-25T03:41:02.019Z,8.27
2022-07-25T03:43:33.759Z,9.70
2022-07-25T03:46:05.560Z,8.30
2022-07-25T03:48:37.346Z,9.07
2022-07-25T03:51:09.213Z,9.03
2022-07-25T03:53:59.624Z,9.17
2022-07-25T03:56:36.243Z,8.83
2022-07-25T03:59:17.719Z,8.83
2022-07-25T04:01:50.899Z,8.83
2022-07-25T04:04:22.808Z,9.47
2022-07-25T04:06:54.547Z,8.53
2022-07-25T04:09:26.489Z,9.43
2022-07-25T04:12:04.538Z,8.77
2022-07-25T04:14:36.363Z,9.10
2022-07-25T04:17:08.147Z,9.03
2022-07-25T04:19:41.449Z,9.13
2022-07-25T04:22:13.217Z,10.40
2022-07-25T04:24:44.971Z,10.23
2022-07-25T04:27:16.848Z,10.23
2022-07-25T04:29:48.607Z,10.57
2022-07-25T04:32:23.520Z,10.13
2022-07-25T04:34:55.524Z,9.97
2022-07-25T04:37:27.318Z,11.47
2022-07-25T04:39:59.064Z,10.43
2022-07-25T04:42:30.959Z,10.47
2022-07-25T04:45:02.715Z,10.60
2022-07-25T04:47:34.674Z,10.20
2022-07-25T04:50:08.082Z,9.10
2022-07-25T04:52:40.074Z,8.60
2022-07-25T04:55:12.240Z,8.77
2022-07-25T04:57:43.968Z,8.00
2022-07-25T05:00:16.683Z,6.60
2022-07-25T05:02:49.909Z,8.52
2022-07-25T05:05:22.352Z,7.07
2022-07-25T05:07:59.188Z,8.18
2022-07-25T05:10:31.145Z,6.18
2022-07-25T05:13:03.301Z,13.73
2022-07-25T05:15:35.316Z,10.48
2022-07-25T05:18:07.075Z,14.52
2022-07-25T05:20:39.116Z,13.95
2022-07-25T05:23:10.872Z,7.45
2022-07-25T05:25:42.651Z,6.60
2022-07-25T05:28:14.928Z,6.90
2022-07-25T05:34:46.584Z,6.95
2022-07-25T05:37:18.399Z,6.80
2022-07-25T05:39:50.186Z,6.07
2022-07-25T05:42:21.973Z,6.57
2022-07-25T05:44:53.736Z,8.02
2022-07-25T05:47:25.531Z,7.10
2022-07-25T05:49:57.265Z,6.57
2022-07-25T05:52:28.987Z,6.10
2022-07-25T05:55:00.797Z,6.15
2022-07-25T05:57:32.567Z,6.78
2022-07-25T06:00:06.465Z,6.78
2022-07-25T06:02:38.487Z,6.55
2022-07-25T06:05:10.409Z,6.28
2022-07-25T06:07:42.273Z,5.65
2022-07-25T06:10:14.019Z,6.07
2022-07-25T06:12:45.798Z,6.00
2022-07-25T06:15:22.567Z,6.03
2022-07-25T06:17:58.488Z,7.47
2022-07-25T06:20:31.084Z,5.25
2022-07-25T06:23:04.934Z,6.10
2022-07-25T06:25:36.837Z,5.10
2022-07-25T06:28:10.602Z,5.32
2022-07-25T06:30:44.318Z,5.75
2022-07-25T06:33:16.238Z,4.93
2022-07-25T06:35:48.011Z,4.97
2022-07-25T06:38:19.897Z,5.35
2022-07-25T06:40:51.933Z,4.95
2022-07-25T06:43:24.035Z,4.90
2022-07-25T06:45:55.981Z,4.90
2022-07-25T06:48:27.924Z,7.00
2022-07-25T06:50:59.949Z,5.13
2022-07-25T06:53:31.988Z,5.10
2022-07-25T06:56:03.993Z,4.72
2022-07-25T06:58:35.804Z,5.05
2022-07-25T07:01:07.806Z,5.38
2022-07-25T07:03:40.533Z,4.97
2022-07-25T07:06:12.387Z,5.28
2022-07-25T07:08:44.123Z,4.80
2022-07-25T07:11:16.761Z,5.00
2022-07-25T07:13:48.509Z,5.10
2022-07-25T07:16:20.493Z,4.75
2022-07-25T07:18:52.359Z,4.80
2022-07-25T07:21:24.631Z,4.93
2022-07-25T07:23:57.688Z,4.70
2022-07-25T07:26:29.519Z,5.70
2022-07-25T07:29:03.280Z,6.53
2022-07-25T07:31:35.429Z,4.15
2022-07-25T07:34:07.421Z,6.07
2022-07-25T07:36:39.322Z,4.72
2022-07-25T07:39:11.168Z,7.65
2022-07-25T07:41:42.942Z,5.43
2022-07-25T07:44:14.865Z,4.45
2022-07-25T07:46:46.706Z,4.55
2022-07-25T07:49:18.577Z,5.40
2022-07-25T07:51:50.343Z,5.40
2022-07-25T07:54:41.029Z,4.93
2022-07-25T07:57:12.797Z,5.53
2022-07-25T07:59:44.708Z,5.65
2022-07-25T08:02:17.249Z,6.93
2022-07-25T08:04:51.862Z,5.25
2022-07-25T08:07:27.047Z,4.90
2022-07-25T08:09:58.903Z,6.22
2022-07-25T08:12:32.841Z,5.55
2022-07-25T08:15:05.284Z,5.72
2022-07-25T08:17:37.321Z,5.43
2022-07-25T08:20:36.477Z,4.97
2022-07-25T08:23:03.823Z,5.22
2022-07-25T08:25:36.160Z,4.60
2022-07-25T08:28:08.481Z,5.63
2022-07-25T08:30:41.851Z,4.95
2022-07-25T08:33:18.347Z,4.90
2022-07-25T08:35:53.700Z,5.05
2022-07-25T08:38:28.191Z,5.20
2022-07-25T08:41:00.085Z,7.05
2022-07-25T08:43:35.906Z,5.38
2022-07-25T08:46:10.563Z,5.32
2022-07-25T08:48:44.585Z,5.13
2022-07-25T08:51:16.796Z,5.43
2022-07-25T08:53:50.211Z,7.20
2022-07-25T08:56:22.040Z,4.72
2022-07-25T08:58:53.957Z,5.50
2022-07-25T09:01:25.925Z,5.05
2022-07-25T09:03:58.242Z,5.82
2022-07-25T09:06:30.091Z,4.55
2022-07-25T09:09:08.510Z,4.80
2022-07-25T09:11:40.287Z,4.85
2022-07-25T09:14:15.247Z,5.13
2022-07-25T09:16:47.986Z,6.63
2022-07-25T09:19:21.604Z,5.38
2022-07-25T09:22:10.373Z,4.97
2022-07-25T09:24:45.586Z,4.72
2022-07-25T09:27:18.232Z,6.25
2022-07-25T09:29:49.987Z,5.55
2022-07-25T09:32:22.999Z,5.72
2022-07-25T09:34:54.864Z,5.10
2022-07-25T09:37:27.628Z,5.53
2022-07-25T09:39:59.597Z,5.00
2022-07-25T09:42:32.814Z,5.20
2022-07-25T09:45:06.637Z,5.07
2022-07-25T09:48:02.706Z,5.57
2022-07-25T09:50:34.534Z,5.93
2022-07-25T09:53:06.392Z,4.82
2022-07-25T09:55:38.158Z,4.80
2022-07-25T09:58:10.186Z,5.57
2022-07-25T10:00:43.275Z,5.05
2022-07-25T10:03:16.269Z,5.03
2022-07-25T10:06:11.933Z,5.43
2022-07-25T10:08:44.475Z,5.65
2022-07-25T10:11:21.703Z,5.10
2022-07-25T10:13:55.171Z,5.32
2022-07-25T10:16:27.767Z,4.95
2022-07-25T10:18:59.940Z,5.35
2022-07-25T10:21:31.885Z,6.00
2022-07-25T10:24:06.786Z,5.10
2022-07-25T10:26:40.428Z,5.18
2022-07-25T10:29:13.117Z,5.40
2022-07-25T10:31:50.644Z,5.60
2022-07-25T10:34:33.336Z,6.55
2022-07-25T10:37:14.683Z,5.20
2022-07-25T10:39:48.250Z,5.60
2022-07-25T10:42:23.799Z,5.32
2022-07-25T10:44:57.560Z,5.70
2022-07-25T10:47:29.547Z,6.13
2022-07-25T10:53:00.568Z,5.97
2022-07-25T10:55:35.656Z,6.20
2022-07-25T10:58:17.659Z,6.38
2022-07-25T11:00:51.341Z,5.60
2022-07-25T11:03:24.352Z,5.95
2022-07-25T11:05:56.189Z,5.63
2022-07-25T11:08:35.772Z,8.38
2022-07-25T11:11:08.596Z,5.93
2022-07-25T11:13:42.171Z,6.63
2022-07-25T11:16:14.070Z,5.97
2022-07-25T11:18:45.933Z,5.40
2022-07-25T11:21:17.849Z,6.18
2022-07-25T11:23:52.899Z,5.63
2022-07-25T11:26:24.637Z,6.55
2022-07-25T11:28:56.519Z,5.70
2022-07-25T11:31:29.823Z,6.80
2022-07-25T11:34:01.818Z,5.82
2022-07-25T11:36:33.734Z,5.72
2022-07-25T11:39:05.909Z,6.03
2022-07-25T11:41:39.438Z,6.65
2022-07-25T11:44:11.354Z,6.15
2022-07-25T11:46:44.260Z,6.55
2022-07-25T11:49:16.093Z,5.75
2022-07-25T11:51:47.884Z,6.00
2022-07-25T11:54:20.089Z,6.05
2022-07-25T11:56:52.017Z,5.82
2022-07-25T11:59:25.296Z,6.32
2022-07-25T12:01:57.476Z,6.05
2022-07-25T12:04:29.360Z,6.45
2022-07-25T12:07:06.022Z,6.18
2022-07-25T12:09:37.858Z,7.82
2022-07-25T12:12:09.897Z,6.22
2022-07-25T12:14:44.625Z,6.10
2022-07-25T12:17:16.579Z,6.18
2022-07-25T12:19:48.839Z,6.28
2022-07-25T12:22:20.633Z,8.38
2022-07-25T12:24:52.497Z,5.68
2022-07-25T12:27:24.285Z,6.00
2022-07-25T12:29:56.076Z,5.72
2022-07-25T12:32:27.917Z,5.60
2022-07-25T12:35:00.390Z,5.20
2022-07-25T12:37:32.505Z,5.45
2022-07-25T12:40:05.741Z,5.30
2022-07-25T12:42:37.545Z,4.75
2022-07-25T12:45:10.000Z,4.80
2022-07-25T12:47:43.868Z,4.80
2022-07-25T12:50:16.676Z,5.25
2022-07-25T12:52:48.767Z,5.30
2022-07-25T12:55:21.716Z,5.78
2022-07-25T12:57:53.899Z,6.40
2022-07-25T13:00:26.029Z,5.30
2022-07-25T13:02:58.018Z,5.60
2022-07-25T13:05:29.864Z,5.60
2022-07-25T13:08:05.043Z,5.50
2022-07-25T13:10:36.795Z,5.25
2022-07-25T13:13:08.548Z,5.30
2022-07-25T13:15:40.541Z,4.80
2022-07-25T13:18:12.520Z,5.57
2022-07-25T13:20:44.305Z,5.25
2022-07-25T13:23:20.520Z,5.30
2022-07-25T13:25:52.877Z,4.75
2022-07-25T13:28:24.690Z,5.72
2022-07-25T13:30:56.634Z,5.40
2022-07-25T13:33:29.135Z,5.68
2022-07-25T13:36:00.967Z,4.95
2022-07-25T13:38:34.678Z,5.57
2022-07-25T13:41:06.732Z,5.40
2022-07-25T13:43:38.957Z,5.50
2022-07-25T13:46:11.465Z,5.18
2022-07-25T13:48:43.488Z,5.82
2022-07-25T13:51:15.295Z,4.90
2022-07-25T13:53:47.111Z,5.40
2022-07-25T13:56:18.911Z,5.75
2022-07-25T13:58:50.936Z,7.75
2022-07-25T14:01:22.765Z,5.50
2022-07-25T14:03:55.044Z,5.88
2022-07-25T14:06:26.817Z,5.05
2022-07-25T14:08:58.860Z,5.10
2022-07-25T14:11:31.507Z,5.18
2022-07-25T14:14:03.310Z,4.85
2022-07-25T14:16:35.164Z,4.85
2022-07-25T14:19:08.448Z,5.03
2022-07-25T14:21:40.464Z,4.93
2022-07-25T14:24:12.221Z,4.95
2022-07-25T14:26:43.978Z,4.60
2022-07-25T14:29:15.910Z,4.57
2022-07-25T14:31:47.871Z,5.32
2022-07-25T14:34:19.856Z,4.68
2022-07-25T14:36:51.612Z,4.78
2022-07-25T14:39:23.409Z,5.50
2022-07-25T14:41:55.375Z,5.00
2022-07-25T14:44:28.795Z,7.13
2022-07-25T14:47:00.643Z,4.70
2022-07-25T14:49:32.683Z,4.50
2022-07-25T14:52:04.739Z,4.82
2022-07-25T14:54:36.493Z,4.65
2022-07-25T14:57:09.423Z,4.60
2022-07-25T14:59:41.470Z,4.03
2022-07-25T15:02:13.305Z,5.15
2022-07-25T15:04:45.244Z,5.35
2022-07-25T15:07:17.078Z,4.40
2022-07-25T15:09:48.815Z,5.47
2022-07-25T15:12:20.838Z,4.95
2022-07-25T15:14:52.607Z,4.80
2022-07-25T15:17:24.365Z,5.03
2022-07-25T15:19:56.174Z,4.47
2022-07-25T15:22:27.966Z,4.63
2022-07-25T15:25:39.152Z,4.72
2022-07-25T15:27:51.683Z,4.25
2022-07-25T15:30:28.941Z,4.78
2022-07-25T15:33:01.070Z,4.90
2022-07-25T15:35:32.882Z,3.97
2022-07-25T15:38:04.634Z,4.90
2022-07-25T15:40:36.441Z,4.70
2022-07-25T15:43:08.420Z,5.22
2022-07-25T15:45:42.055Z,5.70
2022-07-25T15:48:14.995Z,5.28
2022-07-25T15:50:48.668Z,4.38
2022-07-25T15:53:20.567Z,4.85
2022-07-25T15:55:52.504Z,4.15
2022-07-25T15:58:24.456Z,4.55
2022-07-25T16:00:56.404Z,4.80
2022-07-25T16:03:28.282Z,4.47
2022-07-25T16:06:00.172Z,2.70
2022-07-25T16:08:32.169Z,3.30
2022-07-25T16:11:04.679Z,2.80
2022-07-25T16:13:36.414Z,3.15
2022-07-25T16:16:08.480Z,3.85
2022-07-25T16:18:40.259Z,2.05
2022-07-25T16:21:12.291Z,2.30
2022-07-25T16:23:45.672Z,2.10
2022-07-25T16:26:17.704Z,2.05
2022-07-25T16:28:49.493Z,2.53
2022-07-25T16:31:21.288Z,2.50
2022-07-25T16:33:53.076Z,3.35
2022-07-25T16:36:25.407Z,2.40
2022-07-25T16:38:57.391Z,2.55
2022-07-25T16:41:29.179Z,2.60
2022-07-25T16:44:02.188Z,2.30
2022-07-25T16:46:34.007Z,2.17
2022-07-25T16:49:06.713Z,2.25
2022-07-25T16:51:38.670Z,2.45
2022-07-25T16:54:10.757Z,2.40
2022-07-25T16:56:42.623Z,2.55
2022-07-25T16:59:14.445Z,2.50
2022-07-25T17:01:46.599Z,3.60
2022-07-25T17:04:18.492Z,2.50
2022-07-25T17:06:50.448Z,2.35
2022-07-25T17:09:23.101Z,2.97
2022-07-25T17:11:54.932Z,3.65
2022-07-25T17:14:30.161Z,2.67
2022-07-25T17:17:02.338Z,2.40
2022-07-25T17:19:38.613Z,2.58
2022-07-25T17:22:10.567Z,4.15
2022-07-25T17:24:42.420Z,2.65
2022-07-25T17:27:14.964Z,6.82
2022-07-25T17:29:46.745Z,4.72
2022-07-25T17:32:18.554Z,5.40
2022-07-25T17:34:52.430Z,9.60
2022-07-25T17:37:24.383Z,8.25
2022-07-25T17:39:56.438Z,21.45
2022-07-25T17:42:28.249Z,12.80
2022-07-25T17:45:00.102Z,12.70
2022-07-25T17:47:32.102Z,8.57
2022-07-25T17:50:05.071Z,7.20
2022-07-25T17:52:36.937Z,4.50
2022-07-25T17:55:09.235Z,6.88
2022-07-25T17:57:42.521Z,5.65
2022-07-25T18:00:15.055Z,4.88
2022-07-25T18:02:47.654Z,5.72
2022-07-25T18:05:19.551Z,5.53
2022-07-25T18:07:51.620Z,7.53
2022-07-25T18:10:23.649Z,5.47
2022-07-25T18:12:55.560Z,8.60
2022-07-25T18:15:27.764Z,5.80
2022-07-25T18:17:59.549Z,6.88
2022-07-25T18:20:31.335Z,7.93
2022-07-25T18:23:04.281Z,5.25
2022-07-25T18:25:36.153Z,4.97
2022-07-25T18:28:07.923Z,5.03
2022-07-25T18:30:39.910Z,5.82
2022-07-25T18:33:12.217Z,5.72
2022-07-25T18:35:44.110Z,5.65
2022-07-25T18:38:15.959Z,5.50
2022-07-25T18:40:49.457Z,5.13
2022-07-25T18:43:21.571Z,5.25
2022-07-25T18:45:54.302Z,5.65
2022-07-25T18:48:29.051Z,5.15
2022-07-25T18:51:00.891Z,5.40
2022-07-25T18:53:32.750Z,5.13
2022-07-25T18:56:05.775Z,10.65
2022-07-25T18:58:37.703Z,5.88
2022-07-25T19:01:09.794Z,5.63
2022-07-25T19:03:41.801Z,5.50
2022-07-25T19:06:13.951Z,5.60
2022-07-25T19:08:47.802Z,5.40
2022-07-25T19:11:19.563Z,5.57
2022-07-25T19:13:51.724Z,5.53
2022-07-25T19:16:23.641Z,6.05
2022-07-25T19:18:55.535Z,6.93
2022-07-25T19:21:27.380Z,6.13
2022-07-25T19:23:59.139Z,5.13
2022-07-25T19:26:31.920Z,5.93
2022-07-25T19:29:06.831Z,5.50
2022-07-25T19:31:38.748Z,5.03
2022-07-25T19:34:11.537Z,6.25
2022-07-25T19:36:45.856Z,5.95
2022-07-25T19:39:17.642Z,6.75
2022-07-25T19:41:49.406Z,5.70
2022-07-25T19:44:21.529Z,8.20
2022-07-25T19:46:54.241Z,5.80
2022-07-25T19:49:26.022Z,5.50
2022-07-25T19:51:57.925Z,7.50
2022-07-25T19:54:29.849Z,7.15
2022-07-25T19:57:01.676Z,5.65
2022-07-25T19:59:33.439Z,5.72
2022-07-25T20:02:05.258Z,6.20
2022-07-25T20:04:37.067Z,9.90
2022-07-25T20:07:08.943Z,7.70
2022-07-25T20:09:40.708Z,6.55
2022-07-25T20:12:12.494Z,6.28
2022-07-25T20:14:44.295Z,7.97
2022-07-25T20:17:16.257Z,6.32
2022-07-25T20:19:48.034Z,5.82
2022-07-25T20:22:19.926Z,5.97
2022-07-25T20:24:51.960Z,6.13
2022-07-25T20:27:24.019Z,8.77
2022-07-25T20:29:55.791Z,5.67
2022-07-25T20:32:27.544Z,6.67
2022-07-25T20:34:59.377Z,6.13
2022-07-25T20:37:31.148Z,7.27
2022-07-25T20:40:04.803Z,7.50
2022-07-25T20:42:37.518Z,6.67
2022-07-25T20:45:09.766Z,8.27
2022-07-25T20:47:41.551Z,6.43
2022-07-25T20:50:13.398Z,7.43
2022-07-25T20:52:45.173Z,6.63
2022-07-25T20:55:16.966Z,5.67
2022-07-25T20:57:50.684Z,7.33
2022-07-25T21:00:25.654Z,6.17
2022-07-25T21:02:58.385Z,5.60
2022-07-25T21:05:30.297Z,5.40
2022-07-25T21:08:02.083Z,6.47
2022-07-25T21:10:33.895Z,6.10
2022-07-25T21:13:05.958Z,6.20
2022-07-25T21:15:37.933Z,5.40
2022-07-25T21:18:09.697Z,5.13
2022-07-25T21:20:41.541Z,4.93
2022-07-25T21:23:14.135Z,5.17
2022-07-25T21:25:45.911Z,4.87
2022-07-25T21:28:17.631Z,6.23
2022-07-25T21:30:49.578Z,4.87
2022-07-25T21:33:21.610Z,5.47
2022-07-25T21:35:53.945Z,5.00
2022-07-25T21:38:27.382Z,5.27
2022-07-25T21:41:00.874Z,4.73
2022-07-25T21:43:32.692Z,4.40
2022-07-25T21:46:04.583Z,4.27
2022-07-25T21:48:54.900Z,4.20
2022-07-25T21:51:26.811Z,4.10
2022-07-25T21:54:10.058Z,4.20
2022-07-25T21:56:42.142Z,4.53
2022-07-25T21:59:13.942Z,5.43
2022-07-25T22:01:45.763Z,5.77
2022-07-25T22:04:18.031Z,4.83
2022-07-25T22:06:49.889Z,5.30
2022-07-25T22:09:21.620Z,4.83
2022-07-25T22:11:57.868Z,4.67
2022-07-25T22:14:29.645Z,4.73
2022-07-25T22:17:01.669Z,4.90
2022-07-25T22:19:33.772Z,4.97
2022-07-25T22:22:06.941Z,5.50
2022-07-25T22:24:41.948Z,7.70
2022-07-25T22:27:18.049Z,5.83
2022-07-25T22:29:49.800Z,6.07
2022-07-25T22:32:21.654Z,5.60
2022-07-25T22:34:53.477Z,6.57
2022-07-25T22:37:25.267Z,5.60
2022-07-25T22:40:01.142Z,6.10
2022-07-25T22:42:33.500Z,6.67
2022-07-25T22:45:05.971Z,6.37
2022-07-25T22:47:37.769Z,9.67
2022-07-25T22:50:10.015Z,7.37
2022-07-25T22:52:41.832Z,5.67
2022-07-25T22:55:13.668Z,5.93
2022-07-25T22:57:45.480Z,10.27
2022-07-25T23:00:17.564Z,5.77
2022-07-25T23:02:49.421Z,6.13
2022-07-25T23:05:21.272Z,5.20
2022-07-25T23:07:53.015Z,6.07
2022-07-25T23:10:24.974Z,6.13
2022-07-25T23:12:56.919Z,6.30
2022-07-25T23:15:28.829Z,5.70
2022-07-25T23:18:20.935Z,6.30
2022-07-25T23:20:52.794Z,7.07
2022-07-25T23:23:24.634Z,6.50
2022-07-25T23:25:56.371Z,6.37
2022-07-25T23:28:28.113Z,6.10
2022-07-25T23:30:59.854Z,6.30
2022-07-25T23:33:33.307Z,5.90
2022-07-25T23:36:05.432Z,6.30
2022-07-25T23:38:40.321Z,5.80
2022-07-25T23:41:21.245Z,6.00
2022-07-25T23:43:56.107Z,5.90
2022-07-25T23:50:33.163Z,7.30
2022-07-25T23:53:04.928Z,5.40
2022-07-25T23:55:39.633Z,5.73
